createdAt,value
2018-06-12T00:00:05.494Z,96.80
2018-06-12T00:02:34.238Z,97.10
2018-06-12T00:05:03.025Z,97.40
2018-06-12T00:07:31.795Z,97.80
2018-06-12T00:10:00.550Z,98.10
2018-06-12T00:12:29.314Z,98.20
2018-06-12T00:14:58.123Z,98.20
2018-06-12T00:17:26.934Z,98.10
2018-06-12T00:19:55.705Z,98.20
2018-06-12T00:22:24.445Z,98.80
2018-06-12T00:24:53.326Z,99.40
2018-06-12T00:27:22.098Z,99.60
2018-06-12T00:29:50.859Z,99.90
2018-06-12T00:32:19.629Z,99.90
2018-06-12T00:34:48.386Z,99.90
2018-06-12T00:37:17.138Z,99.90
2018-06-12T00:39:45.891Z,99.90
2018-06-12T00:42:14.641Z,99.90
2018-06-12T00:44:43.409Z,99.90
2018-06-12T00:47:12.186Z,99.90
2018-06-12T00:49:40.907Z,99.90
2018-06-12T00:52:09.982Z,99.90
2018-06-12T00:54:38.744Z,99.90
2018-06-12T00:57:10.011Z,99.90
2018-06-12T00:59:38.794Z,99.90
2018-06-12T01:02:07.582Z,99.90
2018-06-12T01:04:36.289Z,99.90
2018-06-12T01:07:05.082Z,99.90
2018-06-12T01:09:33.871Z,99.90
2018-06-12T01:12:02.626Z,99.90
2018-06-12T01:14:32.313Z,99.90
2018-06-12T01:17:01.156Z,99.90
2018-06-12T01:19:29.921Z,99.90
2018-06-12T01:21:58.681Z,99.90
2018-06-12T01:24:27.441Z,99.90
2018-06-12T01:26:56.191Z,99.90
2018-06-12T01:29:24.952Z,99.90
2018-06-12T01:31:53.741Z,99.90
2018-06-12T01:34:22.494Z,99.90
2018-06-12T01:36:51.246Z,99.90
2018-06-12T01:39:20.016Z,99.90
2018-06-12T01:41:48.819Z,99.90
2018-06-12T01:44:17.646Z,99.90
2018-06-12T01:46:46.398Z,99.90
2018-06-12T01:49:15.142Z,99.90
2018-06-12T01:51:43.892Z,99.90
2018-06-12T01:54:12.673Z,99.90
2018-06-12T01:56:41.429Z,99.90
2018-06-12T01:59:10.198Z,99.90
2018-06-12T02:01:38.946Z,99.90
2018-06-12T02:04:07.698Z,99.90
2018-06-12T02:06:36.538Z,99.90
2018-06-12T02:09:06.782Z,99.90
2018-06-12T02:11:35.544Z,99.90
2018-06-12T02:14:04.409Z,99.90
2018-06-12T02:16:33.166Z,99.90
2018-06-12T02:19:01.940Z,99.90
2018-06-12T02:21:30.706Z,99.90
2018-06-12T02:23:59.451Z,99.90
2018-06-12T02:26:28.225Z,99.90
2018-06-12T02:28:57.003Z,99.90
2018-06-12T02:31:25.780Z,99.90
2018-06-12T02:33:54.558Z,99.90
2018-06-12T02:36:23.358Z,99.90
2018-06-12T02:38:52.111Z,99.90
2018-06-12T02:41:20.864Z,99.90
2018-06-12T02:43:49.628Z,99.90
2018-06-12T02:46:18.404Z,99.90
2018-06-12T02:48:47.170Z,99.90
2018-06-12T02:51:15.930Z,99.90
2018-06-12T02:53:44.735Z,99.90
2018-06-12T02:56:13.505Z,99.90
2018-06-12T02:58:42.267Z,99.90
2018-06-12T03:01:11.037Z,99.90
2018-06-12T03:03:39.795Z,99.90
2018-06-12T03:06:08.625Z,99.90
2018-06-12T03:08:37.417Z,99.90
2018-06-12T03:11:06.195Z,99.90
2018-06-12T03:13:34.956Z,99.90
2018-06-12T03:16:03.738Z,99.90
2018-06-12T03:18:32.478Z,99.90
2018-06-12T03:21:01.355Z,99.90
2018-06-12T03:23:30.110Z,99.90
2018-06-12T03:26:00.667Z,99.90
2018-06-12T03:28:29.430Z,99.90
2018-06-12T03:30:58.202Z,99.90
2018-06-12T03:33:26.958Z,99.90
2018-06-12T03:35:55.722Z,99.90
2018-06-12T03:38:24.491Z,99.90
2018-06-12T03:40:53.255Z,99.90
2018-06-12T03:43:22.222Z,99.90
2018-06-12T03:45:50.994Z,99.90
2018-06-12T03:48:19.765Z,99.90
2018-06-12T03:50:48.517Z,99.90
2018-06-12T03:53:17.302Z,99.90
2018-06-12T03:55:46.027Z,99.90
2018-06-12T03:58:15.049Z,99.90
2018-06-12T04:00:43.829Z,99.90
2018-06-12T04:03:12.593Z,99.90
2018-06-12T04:05:41.842Z,99.90
2018-06-12T04:08:10.630Z,99.90
2018-06-12T04:10:39.714Z,99.90
2018-06-12T04:13:08.502Z,99.90
2018-06-12T04:15:37.762Z,99.90
2018-06-12T04:18:06.522Z,99.90
2018-06-12T04:20:35.356Z,99.90
2018-06-12T04:23:04.122Z,99.90
2018-06-12T04:25:32.878Z,99.90
2018-06-12T04:28:02.038Z,99.90
2018-06-12T04:30:30.834Z,99.90
2018-06-12T04:32:59.621Z,99.90
2018-06-12T04:35:28.426Z,99.90
2018-06-12T04:37:57.214Z,99.90
2018-06-12T04:40:26.186Z,99.90
2018-06-12T04:42:54.977Z,99.90
2018-06-12T04:45:23.738Z,99.90
2018-06-12T04:47:52.504Z,99.90
2018-06-12T04:50:21.263Z,99.90
2018-06-12T04:52:50.042Z,99.90
2018-06-12T04:55:18.801Z,99.90
2018-06-12T04:57:49.378Z,99.90
2018-06-12T05:00:18.670Z,99.90
2018-06-12T05:02:47.714Z,99.90
2018-06-12T05:05:16.526Z,99.90
2018-06-12T05:07:45.289Z,99.90
2018-06-12T05:10:14.046Z,99.90
2018-06-12T05:12:42.864Z,99.90
2018-06-12T05:15:11.656Z,99.90
2018-06-12T05:17:40.470Z,99.90
2018-06-12T05:20:09.258Z,99.90
2018-06-12T05:22:38.043Z,99.90
2018-06-12T05:25:06.814Z,99.90
2018-06-12T05:27:35.594Z,99.90
2018-06-12T05:30:04.430Z,99.90
2018-06-12T05:32:33.232Z,99.40
2018-06-12T05:35:02.011Z,99.90
2018-06-12T05:37:30.780Z,98.70
2018-06-12T05:39:59.662Z,97.90
2018-06-12T05:42:28.837Z,98.70
2018-06-12T05:44:57.603Z,98.90
2018-06-12T05:47:26.388Z,98.40
2018-06-12T05:49:55.144Z,97.90
2018-06-12T05:52:23.938Z,98.40
2018-06-12T05:54:52.693Z,97.90
2018-06-12T05:57:21.454Z,97.60
2018-06-12T05:59:50.218Z,97.40
2018-06-12T06:02:18.964Z,97.60
2018-06-12T06:04:47.732Z,97.80
2018-06-12T06:07:16.490Z,98.30
2018-06-12T06:09:45.262Z,99.20
2018-06-12T06:12:14.015Z,99.20
2018-06-12T06:14:42.834Z,98.50
2018-06-12T06:17:11.611Z,99.10
2018-06-12T06:19:40.397Z,99.00
2018-06-12T06:22:09.170Z,98.50
2018-06-12T06:24:37.946Z,98.40
2018-06-12T06:27:06.834Z,98.40
2018-06-12T06:29:35.665Z,99.10
2018-06-12T06:32:04.539Z,99.50
2018-06-12T06:34:33.394Z,99.80
2018-06-12T06:37:02.225Z,98.50
2018-06-12T06:39:31.006Z,98.00
2018-06-12T06:41:59.772Z,97.80
2018-06-12T06:44:28.598Z,97.60
2018-06-12T06:46:57.387Z,97.10
2018-06-12T06:49:26.153Z,97.10
2018-06-12T06:51:54.921Z,96.60
2018-06-12T06:54:23.698Z,95.90
2018-06-12T06:56:52.471Z,96.00
2018-06-12T06:59:21.243Z,96.80
2018-06-12T07:01:50.042Z,97.50
2018-06-12T07:04:18.805Z,97.70
2018-06-12T07:06:47.575Z,96.70
2018-06-12T07:09:16.347Z,95.60
2018-06-12T07:11:45.221Z,93.80
2018-06-12T07:14:13.971Z,93.10
2018-06-12T07:21:39.556Z,94.70
2018-06-12T07:24:08.347Z,94.80
2018-06-12T07:26:37.123Z,94.70
2018-06-12T07:29:05.864Z,94.50
2018-06-12T07:31:34.638Z,94.10
2018-06-12T07:34:03.402Z,94.10
2018-06-12T07:36:32.158Z,93.20
2018-06-12T07:39:00.902Z,92.40
2018-06-12T07:41:29.673Z,92.40
2018-06-12T07:43:58.434Z,93.30
2018-06-12T07:46:27.214Z,92.80
2018-06-12T07:48:55.962Z,92.50
2018-06-12T07:51:24.758Z,92.10
2018-06-12T07:53:53.560Z,91.90
2018-06-12T07:56:22.364Z,91.60
2018-06-12T07:58:51.126Z,91.20
2018-06-12T08:01:19.880Z,91.00
2018-06-12T08:03:48.626Z,92.00
2018-06-12T08:06:17.363Z,92.90
2018-06-12T08:08:46.142Z,93.00
2018-06-12T08:11:14.894Z,92.90
2018-06-12T08:13:43.654Z,93.70
2018-06-12T08:16:12.434Z,94.20
2018-06-12T08:18:41.280Z,93.80
2018-06-12T08:21:10.090Z,93.70
2018-06-12T08:23:38.900Z,94.20
2018-06-12T08:26:07.722Z,93.80
2018-06-12T08:28:36.479Z,93.40
2018-06-12T08:31:05.295Z,93.20
2018-06-12T08:33:34.060Z,92.60
2018-06-12T08:36:02.915Z,92.70
2018-06-12T08:38:31.674Z,91.40
2018-06-12T08:41:00.499Z,90.50
2018-06-12T08:43:29.230Z,89.10
2018-06-12T08:45:57.982Z,87.00
2018-06-12T08:48:26.741Z,84.60
2018-06-12T08:50:55.531Z,84.10
2018-06-12T08:55:52.710Z,85.60
2018-06-12T08:58:21.482Z,86.10
2018-06-12T09:00:50.274Z,86.10
2018-06-12T09:03:19.094Z,87.30
2018-06-12T09:05:47.898Z,87.00
2018-06-12T09:08:16.682Z,84.10
2018-06-12T09:10:46.150Z,80.80
2018-06-12T09:13:14.909Z,80.40
2018-06-12T09:15:43.694Z,78.30
2018-06-12T09:18:12.450Z,77.00
2018-06-12T09:20:41.267Z,77.10
2018-06-12T09:23:10.051Z,77.60
2018-06-12T09:25:38.841Z,77.40
2018-06-12T09:28:07.621Z,78.70
2018-06-12T09:30:36.430Z,79.80
2018-06-12T09:33:05.228Z,80.40
2018-06-12T09:35:33.995Z,79.40
2018-06-12T09:38:02.762Z,79.80
2018-06-12T09:40:31.552Z,79.00
2018-06-12T09:43:00.318Z,78.30
2018-06-12T09:45:29.208Z,79.60
2018-06-12T09:47:57.971Z,78.80
2018-06-12T09:50:26.746Z,78.00
2018-06-12T09:55:23.900Z,78.10
2018-06-12T09:57:52.690Z,79.00
2018-06-12T10:00:26.587Z,79.30
2018-06-12T10:02:55.374Z,79.20
2018-06-12T10:05:24.130Z,79.60
2018-06-12T10:07:52.941Z,79.40
2018-06-12T10:10:21.701Z,78.60
2018-06-12T10:12:50.471Z,75.90
2018-06-12T10:15:19.217Z,76.40
2018-06-12T10:17:47.961Z,77.30
2018-06-12T10:20:16.731Z,75.80
2018-06-12T10:22:45.530Z,74.80
2018-06-12T10:25:14.311Z,73.50
2018-06-12T10:27:43.074Z,73.40
2018-06-12T10:30:11.842Z,72.90
2018-06-12T10:32:40.622Z,71.90
2018-06-12T10:35:09.363Z,71.50
2018-06-12T10:37:38.126Z,69.20
2018-06-12T10:40:07.011Z,70.00
2018-06-12T10:42:42.522Z,70.20
2018-06-12T10:45:11.294Z,70.10
2018-06-12T10:47:40.079Z,71.90
2018-06-12T10:50:08.839Z,73.70
2018-06-12T10:52:37.607Z,74.20
2018-06-12T10:55:06.374Z,74.50
2018-06-12T10:57:35.143Z,73.50
2018-06-12T11:00:04.022Z,73.50
2018-06-12T11:02:32.842Z,73.30
2018-06-12T11:05:01.612Z,75.00
2018-06-12T11:07:30.366Z,74.70
2018-06-12T11:09:59.118Z,74.60
2018-06-12T11:12:27.887Z,74.50
2018-06-12T11:14:56.649Z,75.50
2018-06-12T11:17:25.426Z,76.70
2018-06-12T11:19:54.232Z,78.30
2018-06-12T11:22:23.083Z,78.70
2018-06-12T11:24:51.874Z,78.00
2018-06-12T11:27:20.665Z,76.00
2018-06-12T11:29:49.438Z,79.00
2018-06-12T11:32:18.230Z,84.00
2018-06-12T11:34:47.025Z,85.00
2018-06-12T11:37:15.813Z,86.90
2018-06-12T11:39:44.579Z,87.90
2018-06-12T11:42:13.342Z,88.70
2018-06-12T11:44:42.114Z,89.00
2018-06-12T11:47:10.889Z,86.50
2018-06-12T11:49:39.694Z,83.50
2018-06-12T11:52:08.470Z,81.00
2018-06-12T11:54:37.384Z,77.50
2018-06-12T11:57:06.150Z,76.10
2018-06-12T12:02:03.540Z,74.10
2018-06-12T12:04:32.322Z,73.70
2018-06-12T12:07:01.091Z,73.90
2018-06-12T12:09:29.866Z,72.80
2018-06-12T12:11:58.614Z,72.40
2018-06-12T12:14:27.369Z,73.00
2018-06-12T12:16:56.213Z,72.00
2018-06-12T12:19:24.983Z,71.00
2018-06-12T12:21:53.798Z,72.30
2018-06-12T12:24:22.570Z,71.20
2018-06-12T12:26:51.378Z,69.60
2018-06-12T12:29:20.153Z,68.80
2018-06-12T12:31:48.906Z,68.30
2018-06-12T12:34:17.695Z,67.90
2018-06-12T12:36:46.466Z,69.20
2018-06-12T12:39:15.222Z,68.60
2018-06-12T12:41:44.024Z,67.40
2018-06-12T12:44:12.805Z,67.40
2018-06-12T12:46:41.542Z,67.60
2018-06-12T12:49:10.306Z,67.70
2018-06-12T12:51:39.170Z,65.90
2018-06-12T12:54:07.930Z,64.40
2018-06-12T12:56:36.794Z,63.70
2018-06-12T12:59:05.582Z,65.40
2018-06-12T13:01:34.330Z,64.40
2018-06-12T13:04:03.104Z,63.70
2018-06-12T13:06:31.867Z,63.20
2018-06-12T13:09:00.622Z,63.80
2018-06-12T13:11:29.399Z,63.00
2018-06-12T13:13:58.200Z,60.80
2018-06-12T13:16:26.941Z,60.70
2018-06-12T13:18:55.770Z,59.80
2018-06-12T13:21:24.587Z,58.80
2018-06-12T13:23:53.346Z,60.60
2018-06-12T13:26:22.109Z,59.40
2018-06-12T13:28:50.886Z,59.80
2018-06-12T13:31:19.736Z,59.60
2018-06-12T13:33:48.522Z,60.30
2018-06-12T13:36:17.381Z,60.30
2018-06-12T13:38:46.146Z,59.60
2018-06-12T13:41:14.919Z,57.60
2018-06-12T13:43:43.671Z,57.80
2018-06-12T13:46:12.449Z,56.00
2018-06-12T13:48:41.219Z,55.50
2018-06-12T13:51:09.983Z,53.80
2018-06-12T13:53:38.757Z,52.90
2018-06-12T13:56:07.530Z,53.40
2018-06-12T13:58:36.306Z,51.30
2018-06-12T14:03:33.454Z,48.70
2018-06-12T14:06:08.498Z,49.10
2018-06-12T14:08:37.270Z,50.80
2018-06-12T14:11:06.070Z,51.40
2018-06-12T14:13:34.874Z,51.20
2018-06-12T14:16:03.638Z,52.30
2018-06-12T14:18:32.426Z,51.50
2018-06-12T14:21:01.191Z,52.50
2018-06-12T14:23:29.969Z,50.90
2018-06-12T14:25:58.766Z,51.50
2018-06-12T14:28:27.538Z,52.80
2018-06-12T14:30:56.311Z,55.30
2018-06-12T14:33:25.064Z,56.90
2018-06-12T14:35:53.826Z,55.30
2018-06-12T14:38:22.594Z,52.30
2018-06-12T14:40:51.373Z,51.60
2018-06-12T14:43:20.138Z,51.20
2018-06-12T14:45:48.946Z,50.50
2018-06-12T14:48:17.738Z,48.80
2018-06-12T14:50:46.522Z,46.90
2018-06-12T14:53:15.298Z,47.50
2018-06-12T14:55:44.075Z,46.90
2018-06-12T14:58:12.846Z,46.80
2018-06-12T15:00:41.642Z,46.40
2018-06-12T15:03:10.438Z,51.40
2018-06-12T15:05:39.214Z,49.80
2018-06-12T15:08:07.987Z,50.50
2018-06-12T15:13:05.168Z,49.10
2018-06-12T15:15:33.939Z,53.40
2018-06-12T15:18:02.783Z,56.40
2018-06-12T15:20:31.557Z,56.40
2018-06-12T15:23:00.414Z,54.00
2018-06-12T15:25:29.186Z,53.90
2018-06-12T15:27:57.958Z,55.50
2018-06-12T15:30:26.738Z,59.10
2018-06-12T15:32:55.492Z,59.50
2018-06-12T15:35:24.342Z,60.50
2018-06-12T15:37:53.170Z,57.30
2018-06-12T15:40:21.934Z,53.30
2018-06-12T15:42:51.566Z,55.90
2018-06-12T15:45:20.367Z,55.20
2018-06-12T15:47:49.125Z,56.00
2018-06-12T15:50:17.903Z,58.20
2018-06-12T15:52:46.682Z,58.50
2018-06-12T15:55:15.466Z,58.70
2018-06-12T15:57:44.249Z,61.10
2018-06-12T16:00:13.022Z,57.30
2018-06-12T16:02:41.813Z,55.10
2018-06-12T16:05:10.661Z,54.70
2018-06-12T16:07:39.446Z,52.70
2018-06-12T16:10:08.215Z,54.30
2018-06-12T16:12:36.990Z,53.00
2018-06-12T16:15:05.863Z,54.30
2018-06-12T16:17:34.737Z,52.00
2018-06-12T16:20:03.636Z,48.60
2018-06-12T16:22:32.423Z,46.40
2018-06-12T16:25:01.198Z,45.30
2018-06-12T16:27:29.933Z,44.80
2018-06-12T16:29:58.710Z,46.10
2018-06-12T16:32:27.495Z,45.40
2018-06-12T16:34:56.262Z,45.30
2018-06-12T16:37:25.031Z,43.40
2018-06-12T16:39:53.794Z,44.50
2018-06-12T16:42:22.567Z,45.20
2018-06-12T16:44:51.374Z,44.00
2018-06-12T16:47:20.166Z,43.70
2018-06-12T16:49:48.946Z,44.50
2018-06-12T16:52:17.729Z,47.10
2018-06-12T16:54:46.502Z,51.80
2018-06-12T16:57:21.536Z,51.70
2018-06-12T16:59:50.341Z,53.00
2018-06-12T17:02:19.159Z,53.80
2018-06-12T17:04:47.972Z,52.80
2018-06-12T17:07:16.752Z,53.20
2018-06-12T17:09:45.550Z,52.60
2018-06-12T17:12:14.339Z,51.80
2018-06-12T17:14:43.150Z,51.50
2018-06-12T17:17:11.931Z,50.80
2018-06-12T17:19:40.718Z,51.90
2018-06-12T17:22:09.530Z,52.30
2018-06-12T17:24:38.424Z,52.40
2018-06-12T17:27:07.290Z,53.20
2018-06-12T17:29:36.107Z,54.60
2018-06-12T17:32:04.986Z,58.90
2018-06-12T17:34:33.755Z,59.70
2018-06-12T17:37:02.595Z,63.30
2018-06-12T17:39:31.866Z,67.10
2018-06-12T17:42:00.657Z,67.80
2018-06-12T17:44:30.166Z,70.20
2018-06-12T17:46:58.945Z,71.70
2018-06-12T17:49:27.738Z,74.10
2018-06-12T17:51:56.650Z,75.40
2018-06-12T17:54:25.418Z,75.90
2018-06-12T17:56:54.214Z,77.70
2018-06-12T17:59:23.014Z,82.20
2018-06-12T18:01:52.217Z,83.60
2018-06-12T18:04:23.104Z,83.60
2018-06-12T18:06:52.342Z,83.70
2018-06-12T18:09:22.523Z,84.90
2018-06-12T18:11:51.648Z,85.20
2018-06-12T18:14:21.584Z,85.90
2018-06-12T18:16:51.369Z,85.90
2018-06-12T18:19:20.547Z,88.90
2018-06-12T18:21:51.490Z,89.70
2018-06-12T18:24:20.270Z,89.30
2018-06-12T18:26:49.037Z,89.40
2018-06-12T18:29:17.842Z,89.50
2018-06-12T18:31:46.638Z,90.10
2018-06-12T18:34:15.406Z,90.20
2018-06-12T18:36:44.339Z,90.30
2018-06-12T18:41:41.512Z,90.40
2018-06-12T18:44:10.340Z,90.70
2018-06-12T18:46:39.126Z,90.80
2018-06-12T18:49:07.899Z,91.00
2018-06-12T18:51:36.760Z,91.30
2018-06-12T18:54:05.634Z,91.50
2018-06-12T18:56:34.457Z,91.70
2018-06-12T18:59:03.198Z,91.80
2018-06-12T19:01:31.986Z,92.20
2018-06-12T19:04:00.767Z,92.30
2018-06-12T19:06:29.618Z,92.30
2018-06-12T19:08:58.366Z,92.50
2018-06-12T19:11:27.199Z,92.60
2018-06-12T19:13:55.962Z,92.90
2018-06-12T19:16:24.726Z,93.00
2018-06-12T19:18:53.489Z,92.70
2018-06-12T19:21:22.263Z,93.20
2018-06-12T19:23:51.108Z,93.50
2018-06-12T19:26:19.902Z,93.50
2018-06-12T19:28:48.703Z,93.60
2018-06-12T19:31:17.498Z,93.90
2018-06-12T19:33:46.288Z,94.10
2018-06-12T19:36:15.067Z,94.10
2018-06-12T19:38:43.834Z,94.30
2018-06-12T19:41:12.644Z,94.40
2018-06-12T19:43:41.410Z,94.10
2018-06-12T19:46:10.338Z,94.50
2018-06-12T19:48:39.190Z,94.70
2018-06-12T19:51:08.003Z,94.80
2018-06-12T19:53:36.862Z,94.90
2018-06-12T19:56:05.666Z,95.00
2018-06-12T19:58:34.435Z,95.10
2018-06-12T20:01:03.246Z,95.10
2018-06-12T20:03:31.985Z,95.20
2018-06-12T20:06:00.802Z,95.50
2018-06-12T20:08:29.571Z,95.60
2018-06-12T20:10:58.342Z,95.70
2018-06-12T20:13:27.162Z,96.00
2018-06-12T20:15:55.951Z,96.10
2018-06-12T20:18:24.718Z,96.40
2018-06-12T20:20:53.478Z,96.50
2018-06-12T20:23:22.246Z,96.80
2018-06-12T20:25:51.002Z,96.40
2018-06-12T20:28:19.787Z,96.50
2018-06-12T20:30:48.574Z,96.40
2018-06-12T20:33:17.347Z,96.30
2018-06-12T20:35:46.118Z,96.40
2018-06-12T20:38:14.887Z,96.30
2018-06-12T20:40:43.658Z,96.60
2018-06-12T20:43:12.479Z,96.90
2018-06-12T20:45:41.286Z,96.90
2018-06-12T20:48:10.126Z,97.10
2018-06-12T20:50:38.891Z,97.00
2018-06-12T20:53:07.669Z,97.40
2018-06-12T20:55:36.448Z,97.50
2018-06-12T20:58:05.254Z,97.80
2018-06-12T21:00:34.143Z,97.80
2018-06-12T21:03:02.962Z,97.90
2018-06-12T21:05:31.719Z,98.00
2018-06-12T21:08:00.516Z,98.00
2018-06-12T21:10:29.394Z,98.00
2018-06-12T21:12:58.266Z,97.80
2018-06-12T21:15:27.042Z,98.20
2018-06-12T21:17:55.826Z,98.20
2018-06-12T21:20:24.599Z,98.30
2018-06-12T21:22:53.362Z,98.30
2018-06-12T21:25:22.147Z,98.40
2018-06-12T21:27:51.008Z,98.30
2018-06-12T21:30:19.782Z,98.50
2018-06-12T21:32:48.562Z,98.50
2018-06-12T21:35:17.322Z,98.60
2018-06-12T21:37:46.070Z,98.40
2018-06-12T21:40:14.885Z,98.30
2018-06-12T21:42:43.615Z,98.30
2018-06-12T21:45:12.406Z,98.30
2018-06-12T21:47:41.177Z,98.30
2018-06-12T21:50:09.938Z,99.00
2018-06-12T21:52:38.702Z,99.20
2018-06-12T21:55:07.470Z,99.30
2018-06-12T21:57:36.242Z,99.50
2018-06-12T22:00:06.454Z,99.70
2018-06-12T22:02:35.291Z,99.80
2018-06-12T22:05:04.160Z,99.90
2018-06-12T22:07:32.915Z,99.90
2018-06-12T22:10:01.686Z,99.90
2018-06-12T22:12:30.442Z,99.90
2018-06-12T22:14:59.234Z,99.90
2018-06-12T22:17:28.079Z,99.90
2018-06-12T22:19:56.847Z,99.90
2018-06-12T22:22:25.730Z,99.90
2018-06-12T22:24:54.521Z,99.90
2018-06-12T22:27:23.307Z,99.90
2018-06-12T22:29:52.090Z,99.90
2018-06-12T22:32:20.880Z,99.90
2018-06-12T22:34:49.749Z,99.90
2018-06-12T22:37:18.578Z,99.90
2018-06-12T22:39:47.350Z,99.90
2018-06-12T22:42:16.135Z,99.90
2018-06-12T22:44:44.894Z,99.90
2018-06-12T22:47:13.653Z,99.90
2018-06-12T22:49:42.459Z,99.90
2018-06-12T22:52:11.235Z,99.90
2018-06-12T22:54:40.015Z,99.90
2018-06-12T22:57:08.785Z,99.90
2018-06-12T22:59:37.538Z,99.90
2018-06-12T23:02:06.596Z,99.90
2018-06-12T23:04:35.366Z,99.90
2018-06-12T23:07:04.142Z,99.90
2018-06-12T23:09:32.908Z,99.90
2018-06-12T23:12:01.678Z,99.90
2018-06-12T23:14:30.460Z,99.90
2018-06-12T23:16:59.336Z,99.90
2018-06-12T23:19:28.042Z,99.90
2018-06-12T23:21:58.817Z,99.90
2018-06-12T23:24:27.697Z,99.90
2018-06-12T23:26:56.458Z,99.90
2018-06-12T23:29:25.230Z,99.90
2018-06-12T23:31:53.984Z,99.90
2018-06-12T23:34:22.843Z,99.90
2018-06-12T23:36:51.642Z,99.90
2018-06-12T23:39:20.494Z,99.90
2018-06-12T23:41:49.224Z,99.90
2018-06-12T23:44:17.958Z,99.90
2018-06-12T23:46:46.726Z,99.90
2018-06-12T23:49:15.514Z,99.90
2018-06-12T23:51:44.258Z,99.90
2018-06-12T23:54:12.988Z,99.90
2018-06-12T23:56:41.798Z,99.90
2018-06-12T23:59:10.564Z,99.90
